sensor_id;sensor_type;location;lat;lon;timestamp;P1;durP1;ratioP1;P2;durP2;ratioP2
28762;SDS011;15918;51.270;6.522;2024-01-10T00:00:15;19.73;;;12.98;;
28762;SDS011;15918;51.270;6.522;2024-01-10T00:02:40;15.07;;;12.65;;
28762;SDS011;15918;51.270;6.522;2024-01-10T00:05:06;18.08;;;13.00;;
28762;SDS011;15918;51.270;6.522;2024-01-10T00:07:32;15.85;;;11.63;;
28762;SDS011;15918;51.270;6.522;2024-01-10T00:09:57;14.75;;;12.13;;
28762;SDS011;15918;51.270;6.522;2024-01-10T00:12:25;15.88;;;11.68;;
28762;SDS011;15918;51.270;6.522;2024-01-10T00:14:51;16.95;;;11.82;;
28762;SDS011;15918;51.270;6.522;2024-01-10T00:17:16;18.33;;;13.05;;
28762;SDS011;15918;51.270;6.522;2024-01-10T00:19:42;15.40;;;11.95;;
28762;SDS011;15918;51.270;6.522;2024-01-10T00:22:08;15.05;;;12.43;;
28762;SDS011;15918;51.270;6.522;2024-01-10T00:24:34;14.55;;;12.00;;
28762;SDS011;15918;51.270;6.522;2024-01-10T00:27:00;13.73;;;11.30;;
28762;SDS011;15918;51.270;6.522;2024-01-10T00:29:25;16.15;;;12.02;;
28762;SDS011;15918;51.270;6.522;2024-01-10T00:31:51;14.15;;;11.57;;
28762;SDS011;15918;51.270;6.522;2024-01-10T00:34:17;15.02;;;10.98;;
28762;SDS011;15918;51.270;6.522;2024-01-10T00:36:43;14.50;;;11.82;;
28762;SDS011;15918;51.270;6.522;2024-01-10T00:39:08;15.57;;;11.50;;
28762;SDS011;15918;51.270;6.522;2024-01-10T00:41:34;15.45;;;11.63;;
28762;SDS011;15918;51.270;6.522;2024-01-10T00:43:59;16.48;;;12.20;;
28762;SDS011;15918;51.270;6.522;2024-01-10T00:46:25;17.40;;;11.77;;
28762;SDS011;15918;51.270;6.522;2024-01-10T00:48:51;14.95;;;11.65;;
28762;SDS011;15918;51.270;6.522;2024-01-10T00:51:16;14.25;;;11.55;;
28762;SDS011;15918;51.270;6.522;2024-01-10T00:53:42;14.52;;;11.55;;
28762;SDS011;15918;51.270;6.522;2024-01-10T00:56:07;13.77;;;11.43;;
28762;SDS011;15918;51.270;6.522;2024-01-10T00:58:33;14.48;;;11.20;;
28762;SDS011;15918;51.270;6.522;2024-01-10T01:01:00;15.82;;;12.73;;
28762;SDS011;15918;51.270;6.522;2024-01-10T01:03:25;14.07;;;11.90;;
28762;SDS011;15918;51.270;6.522;2024-01-10T01:05:51;15.93;;;11.43;;
28762;SDS011;15918;51.270;6.522;2024-01-10T01:08:17;13.60;;;11.38;;
28762;SDS011;15918;51.270;6.522;2024-01-10T01:10:42;14.00;;;11.07;;
28762;SDS011;15918;51.270;6.522;2024-01-10T01:13:08;14.82;;;11.68;;
28762;SDS011;15918;51.270;6.522;2024-01-10T01:15:33;17.48;;;11.45;;
28762;SDS011;15918;51.270;6.522;2024-01-10T01:17:59;13.85;;;11.38;;
28762;SDS011;15918;51.270;6.522;2024-01-10T01:20:24;12.93;;;10.82;;
28762;SDS011;15918;51.270;6.522;2024-01-10T01:22:53;14.75;;;11.45;;
28762;SDS011;15918;51.270;6.522;2024-01-10T01:25:18;14.52;;;11.40;;
28762;SDS011;15918;51.270;6.522;2024-01-10T01:27:44;15.02;;;11.07;;
28762;SDS011;15918;51.270;6.522;2024-01-10T01:30:09;14.48;;;11.73;;
28762;SDS011;15918;51.270;6.522;2024-01-10T01:32:36;11.95;;;10.65;;
28762;SDS011;15918;51.270;6.522;2024-01-10T01:35:02;15.25;;;11.65;;
28762;SDS011;15918;51.270;6.522;2024-01-10T01:37:28;13.57;;;11.40;;
28762;SDS011;15918;51.270;6.522;2024-01-10T01:39:54;13.57;;;11.35;;
28762;SDS011;15918;51.270;6.522;2024-01-10T01:42:19;14.27;;;11.18;;
28762;SDS011;15918;51.270;6.522;2024-01-10T01:44:45;13.95;;;10.95;;
28762;SDS011;15918;51.270;6.522;2024-01-10T01:47:10;17.02;;;11.73;;
28762;SDS011;15918;51.270;6.522;2024-01-10T01:49:36;16.90;;;11.23;;
28762;SDS011;15918;51.270;6.522;2024-01-10T01:52:02;13.60;;;11.15;;
28762;SDS011;15918;51.270;6.522;2024-01-10T01:54:28;15.27;;;12.02;;
28762;SDS011;15918;51.270;6.522;2024-01-10T01:56:56;13.88;;;10.45;;
28762;SDS011;15918;51.270;6.522;2024-01-10T01:59:22;14.52;;;12.23;;
28762;SDS011;15918;51.270;6.522;2024-01-10T02:01:49;13.77;;;11.18;;
28762;SDS011;15918;51.270;6.522;2024-01-10T02:04:17;14.40;;;11.18;;
28762;SDS011;15918;51.270;6.522;2024-01-10T02:06:43;13.85;;;10.95;;
28762;SDS011;15918;51.270;6.522;2024-01-10T02:09:09;16.55;;;12.23;;
28762;SDS011;15918;51.270;6.522;2024-01-10T02:11:35;14.80;;;10.63;;
28762;SDS011;15918;51.270;6.522;2024-01-10T02:14:00;14.20;;;11.45;;
28762;SDS011;15918;51.270;6.522;2024-01-10T02:16:26;13.82;;;11.82;;
28762;SDS011;15918;51.270;6.522;2024-01-10T02:18:52;14.27;;;11.48;;
28762;SDS011;15918;51.270;6.522;2024-01-10T02:21:21;15.07;;;11.32;;
28762;SDS011;15918;51.270;6.522;2024-01-10T02:23:47;13.32;;;11.15;;
28762;SDS011;15918;51.270;6.522;2024-01-10T02:26:13;13.40;;;11.43;;
28762;SDS011;15918;51.270;6.522;2024-01-10T02:28:39;14.20;;;10.88;;
28762;SDS011;15918;51.270;6.522;2024-01-10T02:31:05;15.23;;;11.77;;
28762;SDS011;15918;51.270;6.522;2024-01-10T02:33:32;14.63;;;11.77;;
28762;SDS011;15918;51.270;6.522;2024-01-10T02:35:57;15.05;;;12.10;;
28762;SDS011;15918;51.270;6.522;2024-01-10T02:38:23;15.75;;;11.38;;
28762;SDS011;15918;51.270;6.522;2024-01-10T02:40:49;14.85;;;11.75;;
28762;SDS011;15918;51.270;6.522;2024-01-10T02:43:15;12.90;;;10.50;;
28762;SDS011;15918;51.270;6.522;2024-01-10T02:45:41;14.00;;;11.27;;
28762;SDS011;15918;51.270;6.522;2024-01-10T02:48:06;14.05;;;10.95;;
28762;SDS011;15918;51.270;6.522;2024-01-10T02:50:32;13.45;;;11.38;;
28762;SDS011;15918;51.270;6.522;2024-01-10T02:52:58;16.52;;;12.05;;
28762;SDS011;15918;51.270;6.522;2024-01-10T02:55:23;15.05;;;11.52;;
28762;SDS011;15918;51.270;6.522;2024-01-10T02:57:49;17.67;;;11.88;;
28762;SDS011;15918;51.270;6.522;2024-01-10T03:00:14;15.32;;;11.23;;
28762;SDS011;15918;51.270;6.522;2024-01-10T03:02:40;14.55;;;11.25;;
28762;SDS011;15918;51.270;6.522;2024-01-10T03:05:06;16.13;;;11.95;;
28762;SDS011;15918;51.270;6.522;2024-01-10T03:07:32;14.57;;;11.35;;
28762;SDS011;15918;51.270;6.522;2024-01-10T03:09:57;13.60;;;11.43;;
28762;SDS011;15918;51.270;6.522;2024-01-10T03:12:23;13.88;;;11.68;;
28762;SDS011;15918;51.270;6.522;2024-01-10T03:14:49;13.82;;;11.20;;
28762;SDS011;15918;51.270;6.522;2024-01-10T03:17:14;14.45;;;10.68;;
28762;SDS011;15918;51.270;6.522;2024-01-10T03:19:40;14.63;;;12.15;;
28762;SDS011;15918;51.270;6.522;2024-01-10T03:22:07;13.38;;;10.57;;
28762;SDS011;15918;51.270;6.522;2024-01-10T03:24:33;15.93;;;11.68;;
28762;SDS011;15918;51.270;6.522;2024-01-10T03:26:59;15.75;;;11.95;;
28762;SDS011;15918;51.270;6.522;2024-01-10T03:29:24;15.20;;;11.93;;
28762;SDS011;15918;51.270;6.522;2024-01-10T03:31:50;17.35;;;12.85;;
28762;SDS011;15918;51.270;6.522;2024-01-10T03:34:16;15.98;;;11.68;;
28762;SDS011;15918;51.270;6.522;2024-01-10T03:36:43;16.98;;;12.32;;
28762;SDS011;15918;51.270;6.522;2024-01-10T03:39:08;16.10;;;12.02;;
28762;SDS011;15918;51.270;6.522;2024-01-10T03:41:35;16.98;;;11.48;;
28762;SDS011;15918;51.270;6.522;2024-01-10T03:44:01;15.98;;;12.25;;
28762;SDS011;15918;51.270;6.522;2024-01-10T03:46:26;18.33;;;12.95;;
28762;SDS011;15918;51.270;6.522;2024-01-10T03:48:52;16.15;;;12.15;;
28762;SDS011;15918;51.270;6.522;2024-01-10T03:51:18;17.30;;;12.60;;
28762;SDS011;15918;51.270;6.522;2024-01-10T03:53:44;18.52;;;12.63;;
28762;SDS011;15918;51.270;6.522;2024-01-10T03:56:10;15.43;;;12.32;;
28762;SDS011;15918;51.270;6.522;2024-01-10T03:58:37;25.30;;;13.65;;
28762;SDS011;15918;51.270;6.522;2024-01-10T04:01:06;18.15;;;12.95;;
28762;SDS011;15918;51.270;6.522;2024-01-10T04:03:32;14.63;;;11.77;;
28762;SDS011;15918;51.270;6.522;2024-01-10T04:05:58;16.60;;;12.38;;
28762;SDS011;15918;51.270;6.522;2024-01-10T04:08:24;14.90;;;11.93;;
28762;SDS011;15918;51.270;6.522;2024-01-10T04:10:49;15.13;;;12.18;;
28762;SDS011;15918;51.270;6.522;2024-01-10T04:13:15;15.15;;;12.63;;
28762;SDS011;15918;51.270;6.522;2024-01-10T04:15:41;16.85;;;12.63;;
28762;SDS011;15918;51.270;6.522;2024-01-10T04:18:06;15.10;;;12.32;;
28762;SDS011;15918;51.270;6.522;2024-01-10T04:20:32;17.33;;;12.57;;
28762;SDS011;15918;51.270;6.522;2024-01-10T04:22:58;15.52;;;12.07;;
28762;SDS011;15918;51.270;6.522;2024-01-10T04:25:23;16.25;;;12.23;;
28762;SDS011;15918;51.270;6.522;2024-01-10T04:27:49;17.67;;;12.25;;
28762;SDS011;15918;51.270;6.522;2024-01-10T04:30:15;15.45;;;12.27;;
28762;SDS011;15918;51.270;6.522;2024-01-10T04:32:41;16.85;;;12.30;;
28762;SDS011;15918;51.270;6.522;2024-01-10T04:35:06;16.73;;;12.20;;
28762;SDS011;15918;51.270;6.522;2024-01-10T04:37:32;15.90;;;12.15;;
28762;SDS011;15918;51.270;6.522;2024-01-10T04:39:58;15.15;;;12.13;;
28762;SDS011;15918;51.270;6.522;2024-01-10T04:42:23;16.88;;;12.43;;
28762;SDS011;15918;51.270;6.522;2024-01-10T04:44:50;16.85;;;12.25;;
28762;SDS011;15918;51.270;6.522;2024-01-10T04:47:15;14.75;;;12.32;;
28762;SDS011;15918;51.270;6.522;2024-01-10T04:49:41;15.23;;;12.48;;
28762;SDS011;15918;51.270;6.522;2024-01-10T04:52:06;17.30;;;12.48;;
28762;SDS011;15918;51.270;6.522;2024-01-10T04:54:32;16.65;;;12.13;;
28762;SDS011;15918;51.270;6.522;2024-01-10T04:56:59;18.23;;;12.57;;
28762;SDS011;15918;51.270;6.522;2024-01-10T04:59:24;19.02;;;12.43;;
28762;SDS011;15918;51.270;6.522;2024-01-10T05:01:50;17.40;;;12.77;;
28762;SDS011;15918;51.270;6.522;2024-01-10T05:04:15;15.90;;;12.18;;
28762;SDS011;15918;51.270;6.522;2024-01-10T05:06:41;14.95;;;12.50;;
28762;SDS011;15918;51.270;6.522;2024-01-10T05:09:07;17.13;;;12.75;;
28762;SDS011;15918;51.270;6.522;2024-01-10T05:11:32;16.02;;;12.38;;
28762;SDS011;15918;51.270;6.522;2024-01-10T05:14:00;16.67;;;11.90;;
28762;SDS011;15918;51.270;6.522;2024-01-10T05:16:26;15.57;;;12.15;;
28762;SDS011;15918;51.270;6.522;2024-01-10T05:18:52;15.82;;;12.70;;
28762;SDS011;15918;51.270;6.522;2024-01-10T05:21:17;17.58;;;13.07;;
28762;SDS011;15918;51.270;6.522;2024-01-10T05:23:43;15.35;;;12.63;;
28762;SDS011;15918;51.270;6.522;2024-01-10T05:26:09;14.05;;;12.23;;
28762;SDS011;15918;51.270;6.522;2024-01-10T05:28:34;16.88;;;13.18;;
28762;SDS011;15918;51.270;6.522;2024-01-10T05:31:00;15.30;;;12.23;;
28762;SDS011;15918;51.270;6.522;2024-01-10T05:33:26;15.82;;;12.35;;
28762;SDS011;15918;51.270;6.522;2024-01-10T05:35:51;16.83;;;13.05;;
28762;SDS011;15918;51.270;6.522;2024-01-10T05:38:17;15.98;;;12.95;;
28762;SDS011;15918;51.270;6.522;2024-01-10T05:40:43;16.10;;;12.60;;
28762;SDS011;15918;51.270;6.522;2024-01-10T05:43:08;18.40;;;13.55;;
28762;SDS011;15918;51.270;6.522;2024-01-10T05:45:37;15.68;;;12.80;;
28762;SDS011;15918;51.270;6.522;2024-01-10T05:48:03;17.05;;;12.40;;
28762;SDS011;15918;51.270;6.522;2024-01-10T05:50:29;17.48;;;13.50;;
28762;SDS011;15918;51.270;6.522;2024-01-10T05:52:55;15.85;;;13.05;;
28762;SDS011;15918;51.270;6.522;2024-01-10T05:55:20;15.57;;;13.15;;
28762;SDS011;15918;51.270;6.522;2024-01-10T05:57:46;17.25;;;13.57;;
28762;SDS011;15918;51.270;6.522;2024-01-10T06:00:12;17.25;;;13.50;;
28762;SDS011;15918;51.270;6.522;2024-01-10T06:02:40;19.08;;;14.23;;
28762;SDS011;15918;51.270;6.522;2024-01-10T06:05:06;17.73;;;13.10;;
28762;SDS011;15918;51.270;6.522;2024-01-10T06:07:36;19.83;;;14.07;;
28762;SDS011;15918;51.270;6.522;2024-01-10T06:10:07;17.88;;;13.60;;
28762;SDS011;15918;51.270;6.522;2024-01-10T06:12:33;16.67;;;13.57;;
28762;SDS011;15918;51.270;6.522;2024-01-10T06:14:59;18.30;;;13.38;;
28762;SDS011;15918;51.270;6.522;2024-01-10T06:17:24;19.45;;;14.50;;
28762;SDS011;15918;51.270;6.522;2024-01-10T06:19:50;16.48;;;13.70;;
28762;SDS011;15918;51.270;6.522;2024-01-10T06:22:16;18.63;;;13.05;;
28762;SDS011;15918;51.270;6.522;2024-01-10T06:24:42;16.17;;;13.18;;
28762;SDS011;15918;51.270;6.522;2024-01-10T06:27:08;17.00;;;13.68;;
28762;SDS011;15918;51.270;6.522;2024-01-10T06:29:34;17.50;;;14.07;;
28762;SDS011;15918;51.270;6.522;2024-01-10T06:32:00;16.98;;;13.93;;
28762;SDS011;15918;51.270;6.522;2024-01-10T06:34:26;18.33;;;14.65;;
28762;SDS011;15918;51.270;6.522;2024-01-10T06:36:52;18.67;;;14.15;;
28762;SDS011;15918;51.270;6.522;2024-01-10T06:39:18;19.33;;;14.32;;
28762;SDS011;15918;51.270;6.522;2024-01-10T06:41:45;18.92;;;14.23;;
28762;SDS011;15918;51.270;6.522;2024-01-10T06:44:11;20.08;;;14.75;;
28762;SDS011;15918;51.270;6.522;2024-01-10T06:46:37;18.58;;;13.55;;
28762;SDS011;15918;51.270;6.522;2024-01-10T06:49:02;20.60;;;15.07;;
28762;SDS011;15918;51.270;6.522;2024-01-10T06:51:28;21.45;;;14.80;;
28762;SDS011;15918;51.270;6.522;2024-01-10T06:53:53;17.40;;;14.60;;
28762;SDS011;15918;51.270;6.522;2024-01-10T06:56:25;20.38;;;15.45;;
28762;SDS011;15918;51.270;6.522;2024-01-10T06:58:51;19.55;;;14.77;;
28762;SDS011;15918;51.270;6.522;2024-01-10T07:01:16;21.20;;;15.70;;
28762;SDS011;15918;51.270;6.522;2024-01-10T07:03:42;20.15;;;15.32;;
28762;SDS011;15918;51.270;6.522;2024-01-10T07:06:09;22.98;;;15.55;;
28762;SDS011;15918;51.270;6.522;2024-01-10T07:08:39;20.38;;;15.05;;
28762;SDS011;15918;51.270;6.522;2024-01-10T07:11:05;20.13;;;15.23;;
28762;SDS011;15918;51.270;6.522;2024-01-10T07:13:31;18.60;;;15.15;;
28762;SDS011;15918;51.270;6.522;2024-01-10T07:15:56;18.60;;;14.73;;
28762;SDS011;15918;51.270;6.522;2024-01-10T07:18:22;20.42;;;16.02;;
28762;SDS011;15918;51.270;6.522;2024-01-10T07:20:48;20.70;;;15.43;;
28762;SDS011;15918;51.270;6.522;2024-01-10T07:23:13;21.23;;;16.30;;
28762;SDS011;15918;51.270;6.522;2024-01-10T07:25:39;18.90;;;15.35;;
28762;SDS011;15918;51.270;6.522;2024-01-10T07:28:04;18.85;;;15.52;;
28762;SDS011;15918;51.270;6.522;2024-01-10T07:30:30;22.63;;;16.38;;
28762;SDS011;15918;51.270;6.522;2024-01-10T07:32:58;20.90;;;16.20;;
28762;SDS011;15918;51.270;6.522;2024-01-10T07:35:24;20.15;;;14.93;;
28762;SDS011;15918;51.270;6.522;2024-01-10T07:37:49;19.15;;;15.25;;
28762;SDS011;15918;51.270;6.522;2024-01-10T07:40:15;21.10;;;16.55;;
28762;SDS011;15918;51.270;6.522;2024-01-10T07:42:42;19.05;;;15.38;;
28762;SDS011;15918;51.270;6.522;2024-01-10T07:45:08;20.52;;;15.95;;
28762;SDS011;15918;51.270;6.522;2024-01-10T07:47:34;24.27;;;16.70;;
28762;SDS011;15918;51.270;6.522;2024-01-10T07:50:03;21.70;;;16.17;;
28762;SDS011;15918;51.270;6.522;2024-01-10T07:52:33;23.98;;;17.35;;
28762;SDS011;15918;51.270;6.522;2024-01-10T07:54:59;20.13;;;16.13;;
28762;SDS011;15918;51.270;6.522;2024-01-10T07:57:25;21.52;;;16.65;;
28762;SDS011;15918;51.270;6.522;2024-01-10T07:59:52;21.50;;;16.65;;
28762;SDS011;15918;51.270;6.522;2024-01-10T08:02:17;20.77;;;16.52;;
28762;SDS011;15918;51.270;6.522;2024-01-10T08:04:43;22.15;;;16.05;;
28762;SDS011;15918;51.270;6.522;2024-01-10T08:07:09;22.23;;;16.05;;
28762;SDS011;15918;51.270;6.522;2024-01-10T08:09:35;22.75;;;16.65;;
28762;SDS011;15918;51.270;6.522;2024-01-10T08:12:01;21.08;;;16.63;;
28762;SDS011;15918;51.270;6.522;2024-01-10T08:14:27;24.60;;;16.98;;
28762;SDS011;15918;51.270;6.522;2024-01-10T08:16:53;21.27;;;17.08;;
28762;SDS011;15918;51.270;6.522;2024-01-10T08:19:19;21.58;;;16.70;;
28762;SDS011;15918;51.270;6.522;2024-01-10T08:21:46;21.92;;;16.67;;
28762;SDS011;15918;51.270;6.522;2024-01-10T08:24:11;22.95;;;17.15;;
28762;SDS011;15918;51.270;6.522;2024-01-10T08:26:37;24.92;;;17.60;;
28762;SDS011;15918;51.270;6.522;2024-01-10T08:29:03;23.10;;;17.73;;
28762;SDS011;15918;51.270;6.522;2024-01-10T08:31:29;20.42;;;16.73;;
28762;SDS011;15918;51.270;6.522;2024-01-10T08:33:54;21.65;;;17.00;;
28762;SDS011;15918;51.270;6.522;2024-01-10T08:36:21;24.38;;;16.90;;
28762;SDS011;15918;51.270;6.522;2024-01-10T08:38:49;22.40;;;17.02;;
28762;SDS011;15918;51.270;6.522;2024-01-10T08:41:15;20.88;;;17.33;;
28762;SDS011;15918;51.270;6.522;2024-01-10T08:43:40;22.35;;;17.27;;
28762;SDS011;15918;51.270;6.522;2024-01-10T08:46:07;24.90;;;18.48;;
28762;SDS011;15918;51.270;6.522;2024-01-10T08:48:33;22.92;;;17.55;;
28762;SDS011;15918;51.270;6.522;2024-01-10T08:50:59;24.23;;;18.80;;
28762;SDS011;15918;51.270;6.522;2024-01-10T08:53:24;24.08;;;18.42;;
28762;SDS011;15918;51.270;6.522;2024-01-10T08:55:50;24.77;;;18.45;;
28762;SDS011;15918;51.270;6.522;2024-01-10T08:58:15;23.45;;;18.52;;
28762;SDS011;15918;51.270;6.522;2024-01-10T09:00:41;22.38;;;18.08;;
28762;SDS011;15918;51.270;6.522;2024-01-10T09:03:06;24.83;;;19.38;;
28762;SDS011;15918;51.270;6.522;2024-01-10T09:05:32;24.85;;;19.50;;
28762;SDS011;15918;51.270;6.522;2024-01-10T09:07:58;25.77;;;19.13;;
28762;SDS011;15918;51.270;6.522;2024-01-10T09:10:23;26.05;;;18.77;;
28762;SDS011;15918;51.270;6.522;2024-01-10T09:12:52;27.08;;;20.08;;
28762;SDS011;15918;51.270;6.522;2024-01-10T09:15:18;27.02;;;19.13;;
28762;SDS011;15918;51.270;6.522;2024-01-10T09:17:44;26.38;;;19.60;;
28762;SDS011;15918;51.270;6.522;2024-01-10T09:20:10;25.38;;;19.20;;
28762;SDS011;15918;51.270;6.522;2024-01-10T09:22:37;27.77;;;19.42;;
28762;SDS011;15918;51.270;6.522;2024-01-10T09:25:04;26.17;;;19.25;;
28762;SDS011;15918;51.270;6.522;2024-01-10T09:27:31;25.95;;;19.50;;
28762;SDS011;15918;51.270;6.522;2024-01-10T09:29:57;26.60;;;20.55;;
28762;SDS011;15918;51.270;6.522;2024-01-10T09:32:22;26.08;;;19.40;;
28762;SDS011;15918;51.270;6.522;2024-01-10T09:34:48;26.15;;;20.13;;
28762;SDS011;15918;51.270;6.522;2024-01-10T09:37:13;27.33;;;20.42;;
28762;SDS011;15918;51.270;6.522;2024-01-10T09:39:39;27.88;;;20.40;;
28762;SDS011;15918;51.270;6.522;2024-01-10T09:42:05;28.23;;;19.90;;
28762;SDS011;15918;51.270;6.522;2024-01-10T09:44:31;26.35;;;20.75;;
28762;SDS011;15918;51.270;6.522;2024-01-10T09:46:58;33.10;;;21.45;;
28762;SDS011;15918;51.270;6.522;2024-01-10T09:49:23;27.15;;;20.15;;
28762;SDS011;15918;51.270;6.522;2024-01-10T09:51:50;26.73;;;20.75;;
28762;SDS011;15918;51.270;6.522;2024-01-10T09:54:22;28.77;;;20.58;;
28762;SDS011;15918;51.270;6.522;2024-01-10T09:56:50;26.90;;;20.17;;
28762;SDS011;15918;51.270;6.522;2024-01-10T09:59:16;29.75;;;20.60;;
28762;SDS011;15918;51.270;6.522;2024-01-10T10:01:42;26.67;;;20.92;;
28762;SDS011;15918;51.270;6.522;2024-01-10T10:04:09;29.85;;;22.10;;
28762;SDS011;15918;51.270;6.522;2024-01-10T10:06:37;28.98;;;20.58;;
28762;SDS011;15918;51.270;6.522;2024-01-10T10:09:03;26.73;;;20.83;;
28762;SDS011;15918;51.270;6.522;2024-01-10T10:11:29;25.05;;;19.98;;
28762;SDS011;15918;51.270;6.522;2024-01-10T10:13:55;25.73;;;19.85;;
28762;SDS011;15918;51.270;6.522;2024-01-10T10:16:24;26.70;;;20.77;;
28762;SDS011;15918;51.270;6.522;2024-01-10T10:18:54;27.45;;;20.77;;
28762;SDS011;15918;51.270;6.522;2024-01-10T10:21:23;26.55;;;22.00;;
28762;SDS011;15918;51.270;6.522;2024-01-10T10:23:58;31.08;;;21.67;;
28762;SDS011;15918;51.270;6.522;2024-01-10T10:26:29;26.00;;;20.85;;
28762;SDS011;15918;51.270;6.522;2024-01-10T10:28:58;27.08;;;21.38;;
28762;SDS011;15918;51.270;6.522;2024-01-10T10:31:24;25.02;;;20.30;;
28762;SDS011;15918;51.270;6.522;2024-01-10T10:33:50;28.30;;;21.23;;
28762;SDS011;15918;51.270;6.522;2024-01-10T10:36:17;25.20;;;20.42;;
28762;SDS011;15918;51.270;6.522;2024-01-10T10:38:43;24.90;;;20.83;;
28762;SDS011;15918;51.270;6.522;2024-01-10T10:41:09;31.50;;;23.23;;
28762;SDS011;15918;51.270;6.522;2024-01-10T10:43:38;25.58;;;20.55;;
28762;SDS011;15918;51.270;6.522;2024-01-10T10:46:05;28.60;;;20.98;;
28762;SDS011;15918;51.270;6.522;2024-01-10T10:48:34;26.50;;;21.98;;
28762;SDS011;15918;51.270;6.522;2024-01-10T10:53:34;28.10;;;21.77;;
28762;SDS011;15918;51.270;6.522;2024-01-10T10:56:04;32.08;;;22.58;;
28762;SDS011;15918;51.270;6.522;2024-01-10T10:58:36;26.17;;;21.65;;
28762;SDS011;15918;51.270;6.522;2024-01-10T11:01:04;30.27;;;23.25;;
28762;SDS011;15918;51.270;6.522;2024-01-10T11:03:33;28.10;;;21.98;;
28762;SDS011;15918;51.270;6.522;2024-01-10T11:06:00;29.27;;;22.08;;
28762;SDS011;15918;51.270;6.522;2024-01-10T11:08:27;26.98;;;21.08;;
28762;SDS011;15918;51.270;6.522;2024-01-10T11:10:58;26.27;;;20.80;;
28762;SDS011;15918;51.270;6.522;2024-01-10T11:21:18;26.05;;;20.85;;
28762;SDS011;15918;51.270;6.522;2024-01-10T11:23:53;27.23;;;21.00;;
28762;SDS011;15918;51.270;6.522;2024-01-10T11:26:21;26.07;;;21.10;;
28762;SDS011;15918;51.270;6.522;2024-01-10T11:28:46;27.70;;;21.58;;
28762;SDS011;15918;51.270;6.522;2024-01-10T11:31:14;26.95;;;20.55;;
28762;SDS011;15918;51.270;6.522;2024-01-10T11:33:43;23.85;;;20.13;;
28762;SDS011;15918;51.270;6.522;2024-01-10T11:36:11;26.33;;;20.00;;
28762;SDS011;15918;51.270;6.522;2024-01-10T11:41:26;25.77;;;19.55;;
28762;SDS011;15918;51.270;6.522;2024-01-10T11:49:12;25.70;;;19.50;;
28762;SDS011;15918;51.270;6.522;2024-01-10T11:51:47;25.60;;;18.92;;
28762;SDS011;15918;51.270;6.522;2024-01-10T11:54:35;26.25;;;19.52;;
28762;SDS011;15918;51.270;6.522;2024-01-10T11:57:02;24.67;;;19.80;;
28762;SDS011;15918;51.270;6.522;2024-01-10T11:59:32;25.55;;;20.15;;
28762;SDS011;15918;51.270;6.522;2024-01-10T12:01:59;26.52;;;19.63;;
28762;SDS011;15918;51.270;6.522;2024-01-10T12:04:25;25.58;;;20.55;;
28762;SDS011;15918;51.270;6.522;2024-01-10T12:06:54;24.13;;;19.92;;
28762;SDS011;15918;51.270;6.522;2024-01-10T12:09:21;30.10;;;22.88;;
28762;SDS011;15918;51.270;6.522;2024-01-10T12:11:49;28.60;;;23.48;;
28762;SDS011;15918;51.270;6.522;2024-01-10T12:14:15;31.08;;;22.23;;
28762;SDS011;15918;51.270;6.522;2024-01-10T12:16:41;29.38;;;21.58;;
28762;SDS011;15918;51.270;6.522;2024-01-10T12:19:06;28.15;;;21.15;;
28762;SDS011;15918;51.270;6.522;2024-01-10T12:21:32;26.92;;;21.13;;
28762;SDS011;15918;51.270;6.522;2024-01-10T12:23:58;26.10;;;19.85;;
28762;SDS011;15918;51.270;6.522;2024-01-10T12:26:23;29.98;;;20.55;;
28762;SDS011;15918;51.270;6.522;2024-01-10T12:28:58;26.40;;;19.67;;
28762;SDS011;15918;51.270;6.522;2024-01-10T12:31:28;26.30;;;20.73;;
28762;SDS011;15918;51.270;6.522;2024-01-10T12:33:58;25.00;;;19.67;;
28762;SDS011;15918;51.270;6.522;2024-01-10T12:36:24;25.80;;;19.92;;
28762;SDS011;15918;51.270;6.522;2024-01-10T12:38:50;27.83;;;20.85;;
28762;SDS011;15918;51.270;6.522;2024-01-10T12:41:16;27.70;;;20.23;;
28762;SDS011;15918;51.270;6.522;2024-01-10T12:43:43;24.67;;;20.70;;
28762;SDS011;15918;51.270;6.522;2024-01-10T12:46:20;28.73;;;20.75;;
28762;SDS011;15918;51.270;6.522;2024-01-10T12:48:49;29.45;;;21.60;;
28762;SDS011;15918;51.270;6.522;2024-01-10T12:51:25;24.70;;;18.83;;
28762;SDS011;15918;51.270;6.522;2024-01-10T12:53:51;27.58;;;20.08;;
28762;SDS011;15918;51.270;6.522;2024-01-10T12:56:18;24.17;;;19.90;;
28762;SDS011;15918;51.270;6.522;2024-01-10T12:58:44;26.73;;;19.80;;
28762;SDS011;15918;51.270;6.522;2024-01-10T13:01:10;26.13;;;19.83;;
28762;SDS011;15918;51.270;6.522;2024-01-10T13:03:37;24.55;;;19.15;;
28762;SDS011;15918;51.270;6.522;2024-01-10T13:06:03;31.95;;;21.15;;
28762;SDS011;15918;51.270;6.522;2024-01-10T13:08:30;27.45;;;20.50;;
28762;SDS011;15918;51.270;6.522;2024-01-10T13:10:57;28.33;;;21.38;;
28762;SDS011;15918;51.270;6.522;2024-01-10T13:13:22;30.98;;;22.10;;
28762;SDS011;15918;51.270;6.522;2024-01-10T13:15:48;34.88;;;21.67;;
28762;SDS011;15918;51.270;6.522;2024-01-10T13:18:14;27.85;;;20.73;;
28762;SDS011;15918;51.270;6.522;2024-01-10T13:20:40;29.10;;;20.40;;
28762;SDS011;15918;51.270;6.522;2024-01-10T13:23:08;25.52;;;19.40;;
28762;SDS011;15918;51.270;6.522;2024-01-10T13:25:34;24.50;;;20.38;;
28762;SDS011;15918;51.270;6.522;2024-01-10T13:28:01;27.73;;;20.98;;
28762;SDS011;15918;51.270;6.522;2024-01-10T13:30:27;28.38;;;22.25;;
28762;SDS011;15918;51.270;6.522;2024-01-10T13:32:52;26.08;;;22.60;;
28762;SDS011;15918;51.270;6.522;2024-01-10T13:35:18;28.63;;;22.85;;
28762;SDS011;15918;51.270;6.522;2024-01-10T13:37:47;28.05;;;23.58;;
28762;SDS011;15918;51.270;6.522;2024-01-10T13:40:12;30.65;;;23.58;;
28762;SDS011;15918;51.270;6.522;2024-01-10T13:42:44;33.00;;;24.17;;
28762;SDS011;15918;51.270;6.522;2024-01-10T13:45:10;30.98;;;24.23;;
28762;SDS011;15918;51.270;6.522;2024-01-10T13:47:36;29.48;;;22.75;;
28762;SDS011;15918;51.270;6.522;2024-01-10T13:50:02;30.05;;;21.98;;
28762;SDS011;15918;51.270;6.522;2024-01-10T13:52:29;28.45;;;22.98;;
28762;SDS011;15918;51.270;6.522;2024-01-10T13:54:54;29.52;;;22.67;;
28762;SDS011;15918;51.270;6.522;2024-01-10T13:57:21;27.90;;;21.92;;
28762;SDS011;15918;51.270;6.522;2024-01-10T13:59:46;32.38;;;21.05;;
28762;SDS011;15918;51.270;6.522;2024-01-10T14:02:12;29.65;;;22.15;;
28762;SDS011;15918;51.270;6.522;2024-01-10T14:04:39;33.33;;;21.88;;
28762;SDS011;15918;51.270;6.522;2024-01-10T14:07:04;27.45;;;21.45;;
28762;SDS011;15918;51.270;6.522;2024-01-10T14:09:30;26.45;;;22.70;;
28762;SDS011;15918;51.270;6.522;2024-01-10T14:11:56;28.30;;;21.70;;
28762;SDS011;15918;51.270;6.522;2024-01-10T14:14:22;28.67;;;22.48;;
28762;SDS011;15918;51.270;6.522;2024-01-10T14:16:48;29.55;;;22.35;;
28762;SDS011;15918;51.270;6.522;2024-01-10T14:19:14;30.90;;;22.30;;
28762;SDS011;15918;51.270;6.522;2024-01-10T14:21:42;28.90;;;21.85;;
28762;SDS011;15918;51.270;6.522;2024-01-10T14:24:13;28.17;;;22.40;;
28762;SDS011;15918;51.270;6.522;2024-01-10T14:26:39;29.92;;;23.65;;
28762;SDS011;15918;51.270;6.522;2024-01-10T14:29:04;28.13;;;23.52;;
28762;SDS011;15918;51.270;6.522;2024-01-10T14:31:30;41.50;;;24.45;;
28762;SDS011;15918;51.270;6.522;2024-01-10T14:33:56;31.10;;;23.17;;